createdAt,value
2023-04-25T00:01:38.566Z,3.95
2023-04-25T00:03:41.014Z,3.80
2023-04-25T00:05:42.824Z,3.65
2023-04-25T00:07:44.359Z,4.15
2023-04-25T00:09:45.823Z,4.18
2023-04-25T00:11:47.212Z,3.88
2023-04-25T00:13:49.468Z,3.50
2023-04-25T00:15:51.330Z,4.13
2023-04-25T00:17:53.967Z,3.13
2023-04-25T00:19:55.577Z,3.70
2023-04-25T00:21:57.088Z,3.67
2023-04-25T00:23:58.460Z,3.78
2023-04-25T00:25:59.891Z,3.95
2023-04-25T00:28:01.355Z,3.97
2023-04-25T00:30:03.595Z,3.58
2023-04-25T00:32:05.363Z,4.07
2023-04-25T00:34:07.655Z,3.95
2023-04-25T00:36:09.452Z,3.97
2023-04-25T00:38:10.820Z,4.32
2023-04-25T00:40:12.749Z,4.13
2023-04-25T00:42:14.761Z,3.97
2023-04-25T00:44:17.846Z,4.00
2023-04-25T00:46:19.290Z,4.70
2023-04-25T00:48:24.061Z,4.60
2023-04-25T00:50:25.626Z,5.35
2023-04-25T00:52:27.074Z,4.68
2023-04-25T00:54:28.725Z,5.13
2023-04-25T00:56:30.503Z,5.35
2023-04-25T00:58:31.980Z,5.25
2023-04-25T01:00:33.845Z,5.57
2023-04-25T01:02:36.719Z,5.50
2023-04-25T01:04:38.728Z,4.82
2023-04-25T01:06:41.430Z,4.95
2023-04-25T01:08:42.858Z,5.47
2023-04-25T01:10:44.320Z,5.65
2023-04-25T01:12:45.767Z,5.93
2023-04-25T01:14:47.881Z,5.93
2023-04-25T01:16:49.368Z,5.78
2023-04-25T01:18:52.189Z,5.70
2023-04-25T01:20:54.551Z,5.63
2023-04-25T01:22:56.461Z,6.03
2023-04-25T01:27:36.828Z,5.80
2023-04-25T01:29:38.498Z,5.22
2023-04-25T01:31:40.319Z,5.20
2023-04-25T01:33:41.817Z,5.70
2023-04-25T01:35:43.393Z,5.40
2023-04-25T01:37:45.950Z,5.32
2023-04-25T01:39:47.797Z,5.82
2023-04-25T01:41:50.076Z,5.50
2023-04-25T01:43:51.828Z,5.47
2023-04-25T01:45:53.590Z,6.43
2023-04-25T01:47:55.293Z,5.55
2023-04-25T01:49:56.978Z,5.90
2023-04-25T01:51:58.402Z,5.50
2023-04-25T01:54:01.074Z,5.95
2023-04-25T01:56:02.665Z,6.32
2023-04-25T01:58:04.668Z,5.97
2023-04-25T02:00:07.984Z,5.93
2023-04-25T02:02:09.407Z,6.78
2023-04-25T02:04:11.033Z,7.18
2023-04-25T02:06:12.648Z,6.70
2023-04-25T02:08:14.043Z,6.07
2023-04-25T02:10:15.968Z,6.70
2023-04-25T02:12:17.555Z,6.78
2023-04-25T02:14:19.011Z,6.55
2023-04-25T02:16:20.572Z,6.50
2023-04-25T02:18:22.321Z,7.13
2023-04-25T02:20:25.025Z,7.10
2023-04-25T02:22:27.803Z,7.22
2023-04-25T02:24:29.220Z,6.82
2023-04-25T02:26:31.227Z,6.53
2023-04-25T02:28:32.623Z,7.07
2023-04-25T02:30:34.087Z,7.05
2023-04-25T02:32:35.634Z,8.38
2023-04-25T02:34:37.533Z,7.05
2023-04-25T02:36:39.025Z,8.40
2023-04-25T02:38:40.724Z,6.95
2023-04-25T02:40:42.309Z,7.18
2023-04-25T02:42:43.791Z,8.15
2023-04-25T02:44:45.207Z,7.65
2023-04-25T02:46:46.694Z,7.00
2023-04-25T02:48:48.239Z,6.13
2023-04-25T02:50:49.728Z,7.75
2023-04-25T02:52:51.538Z,7.85
2023-04-25T02:54:52.979Z,7.70
2023-04-25T02:56:54.368Z,6.95
2023-04-25T02:58:56.018Z,7.13
2023-04-25T03:00:57.507Z,7.45
2023-04-25T03:02:59.118Z,7.90
2023-04-25T03:05:00.624Z,8.52
2023-04-25T03:07:02.073Z,8.27
2023-04-25T03:09:03.506Z,9.02
2023-04-25T03:11:04.984Z,8.30
2023-04-25T03:13:06.424Z,7.80
2023-04-25T03:15:08.441Z,9.50
2023-04-25T03:17:09.843Z,7.88
2023-04-25T03:19:11.316Z,8.65
2023-04-25T03:21:12.743Z,8.27
2023-04-25T03:23:14.153Z,8.65
2023-04-25T03:25:15.678Z,8.70
2023-04-25T03:27:18.100Z,8.38
2023-04-25T03:29:19.617Z,8.80
2023-04-25T03:31:21.563Z,8.75
2023-04-25T03:33:23.361Z,8.20
2023-04-25T03:35:25.935Z,8.15
2023-04-25T03:37:27.669Z,8.30
2023-04-25T03:39:29.053Z,8.02
2023-04-25T03:41:30.747Z,7.50
2023-04-25T03:43:32.226Z,7.60
2023-04-25T03:45:33.844Z,7.10
2023-04-25T03:47:35.344Z,6.90
2023-04-25T03:49:37.165Z,6.13
2023-04-25T03:51:38.976Z,7.50
2023-04-25T03:53:40.502Z,6.25
2023-04-25T03:55:43.524Z,6.65
2023-04-25T03:57:45.174Z,6.40
2023-04-25T03:59:46.602Z,5.88
2023-04-25T04:01:48.022Z,6.15
2023-04-25T04:03:49.754Z,6.75
2023-04-25T04:05:51.609Z,6.75
2023-04-25T04:07:53.148Z,6.15
2023-04-25T04:09:54.513Z,5.45
2023-04-25T04:11:56.009Z,5.10
2023-04-25T04:13:57.410Z,5.05
2023-04-25T04:15:58.998Z,5.60
2023-04-25T04:18:03.730Z,6.28
2023-04-25T04:20:06.913Z,5.90
2023-04-25T04:22:08.304Z,5.88
2023-04-25T04:24:09.826Z,6.10
2023-04-25T04:26:12.330Z,5.65
2023-04-25T04:28:14.148Z,6.22
2023-04-25T04:30:15.898Z,5.88
2023-04-25T04:32:18.240Z,6.38
2023-04-25T04:34:19.632Z,5.55
2023-04-25T04:36:22.782Z,4.00
2023-04-25T04:38:24.890Z,3.38
2023-04-25T04:40:26.552Z,3.13
2023-04-25T04:42:29.082Z,2.92
2023-04-25T04:44:33.604Z,2.65
2023-04-25T04:46:42.894Z,3.00
2023-04-25T04:48:45.468Z,2.20
2023-04-25T04:50:47.077Z,2.20
2023-04-25T04:52:48.519Z,2.13
2023-04-25T04:54:49.983Z,2.50
2023-04-25T04:56:52.144Z,2.28
2023-04-25T04:58:53.542Z,2.17
2023-04-25T05:00:54.997Z,2.17
2023-04-25T05:02:57.676Z,1.80
2023-04-25T05:04:59.298Z,1.88
2023-04-25T05:07:00.735Z,2.20
2023-04-25T05:09:02.152Z,1.90
2023-04-25T05:11:03.786Z,2.05
2023-04-25T05:13:05.199Z,2.15
2023-04-25T05:15:07.144Z,2.30
2023-04-25T05:17:09.491Z,2.20
2023-04-25T05:19:10.988Z,2.20
2023-04-25T05:21:12.389Z,2.63
2023-04-25T05:23:13.817Z,2.10
2023-04-25T05:25:15.227Z,2.08
2023-04-25T05:27:19.606Z,2.10
2023-04-25T05:29:21.008Z,1.77
2023-04-25T05:31:22.403Z,2.10
2023-04-25T05:33:23.828Z,1.90
2023-04-25T05:35:25.369Z,2.08
2023-04-25T05:37:26.853Z,2.30
2023-04-25T05:39:28.401Z,2.40
2023-04-25T05:41:29.801Z,2.38
2023-04-25T05:43:31.513Z,2.45
2023-04-25T05:45:32.893Z,1.98
2023-04-25T05:47:34.383Z,2.17
2023-04-25T05:49:35.925Z,2.60
2023-04-25T05:51:37.333Z,2.35
2023-04-25T05:53:38.777Z,2.42
2023-04-25T05:55:40.170Z,2.78
2023-04-25T05:57:42.464Z,2.58
2023-04-25T05:59:43.891Z,2.65
2023-04-25T06:01:45.561Z,2.22
2023-04-25T06:03:47.330Z,2.50
2023-04-25T06:05:48.960Z,2.67
2023-04-25T06:07:50.540Z,3.45
2023-04-25T06:09:52.035Z,2.83
2023-04-25T06:11:53.443Z,3.50
2023-04-25T06:13:55.213Z,3.20
2023-04-25T06:15:56.753Z,3.08
2023-04-25T06:17:58.258Z,2.80
2023-04-25T06:19:59.793Z,3.08
2023-04-25T06:22:01.449Z,3.67
2023-04-25T06:24:03.014Z,3.25
2023-04-25T06:26:04.670Z,3.42
2023-04-25T06:28:06.101Z,3.92
2023-04-25T06:30:08.149Z,3.15
2023-04-25T06:32:09.576Z,3.67
2023-04-25T06:34:11.136Z,3.78
2023-04-25T06:36:12.561Z,4.22
2023-04-25T06:38:14.058Z,4.03
2023-04-25T06:40:15.894Z,3.92
2023-04-25T06:42:17.330Z,4.18
2023-04-25T06:44:18.749Z,4.28
2023-04-25T06:46:20.402Z,4.00
2023-04-25T06:48:21.845Z,3.83
2023-04-25T06:50:23.306Z,4.82
2023-04-25T06:52:24.684Z,4.22
2023-04-25T06:54:28.085Z,3.97
2023-04-25T06:56:30.613Z,4.45
2023-04-25T06:58:32.016Z,4.28
2023-04-25T07:00:34.539Z,3.70
2023-04-25T07:02:36.725Z,4.18
2023-04-25T07:04:38.603Z,3.85
2023-04-25T07:06:43.521Z,3.92
2023-04-25T07:08:45.010Z,3.67
2023-04-25T07:10:49.663Z,3.92
2023-04-25T07:12:51.479Z,4.32
2023-04-25T07:14:52.911Z,3.20
2023-04-25T07:16:54.525Z,4.10
2023-04-25T07:18:56.344Z,4.43
2023-04-25T07:20:57.732Z,3.72
2023-04-25T07:22:59.122Z,3.67
2023-04-25T07:25:01.043Z,3.60
2023-04-25T07:27:03.398Z,3.83
2023-04-25T07:29:04.842Z,3.40
2023-04-25T07:31:06.344Z,3.70
2023-04-25T07:33:07.854Z,3.25
2023-04-25T07:35:09.518Z,3.20
2023-04-25T07:37:11.374Z,3.05
2023-04-25T07:39:12.850Z,2.92
2023-04-25T07:41:14.302Z,2.85
2023-04-25T07:43:17.617Z,3.03
2023-04-25T07:45:19.016Z,3.08
2023-04-25T07:47:20.600Z,3.05
2023-04-25T07:49:22.060Z,2.80
2023-04-25T07:51:23.594Z,3.50
2023-04-25T07:53:25.027Z,3.33
2023-04-25T07:55:27.193Z,3.08
2023-04-25T07:57:28.707Z,2.78
2023-04-25T07:59:30.503Z,3.42
2023-04-25T08:01:32.060Z,4.07
2023-04-25T08:03:33.668Z,3.53
2023-04-25T08:05:35.699Z,3.50
2023-04-25T08:07:37.196Z,3.00
2023-04-25T08:09:38.638Z,2.85
2023-04-25T08:11:40.568Z,3.35
2023-04-25T08:13:41.940Z,3.08
2023-04-25T08:15:43.429Z,3.67
2023-04-25T08:17:45.070Z,3.10
2023-04-25T08:19:46.590Z,2.75
2023-04-25T08:21:48.025Z,2.85
2023-04-25T08:23:49.404Z,2.53
2023-04-25T08:25:50.801Z,3.25
2023-04-25T08:27:52.234Z,2.83
2023-04-25T08:29:53.671Z,3.58
2023-04-25T08:31:55.401Z,2.72
2023-04-25T08:33:57.024Z,2.40
2023-04-25T08:35:58.600Z,2.88
2023-04-25T08:38:00.280Z,2.45
2023-04-25T08:40:01.709Z,2.47
2023-04-25T08:42:08.693Z,2.75
2023-04-25T08:46:13.835Z,1.92
2023-04-25T08:48:17.105Z,2.50
2023-04-25T08:50:20.275Z,1.90
2023-04-25T08:52:27.273Z,2.33
2023-04-25T08:54:34.379Z,1.65
2023-04-25T08:56:44.673Z,1.65
2023-04-25T08:58:46.965Z,1.90
2023-04-25T09:00:49.449Z,1.52
2023-04-25T09:02:51.366Z,2.03
2023-04-25T09:04:55.953Z,1.75
2023-04-25T09:06:57.932Z,1.83
2023-04-25T09:09:05.736Z,2.10
2023-04-25T09:11:08.473Z,2.05
2023-04-25T09:13:15.990Z,1.90
2023-04-25T09:15:20.835Z,1.40
2023-04-25T09:17:22.704Z,1.85
2023-04-25T09:19:39.852Z,1.63
2023-04-25T09:21:42.726Z,1.60
2023-04-25T09:23:49.361Z,1.40
2023-04-25T09:25:53.289Z,1.23
2023-04-25T09:27:55.228Z,1.30
2023-04-25T09:30:01.532Z,1.88
2023-04-25T09:32:12.645Z,1.80
2023-04-25T09:34:16.641Z,2.05
2023-04-25T09:36:18.030Z,1.70
2023-04-25T09:38:19.521Z,2.05
2023-04-25T09:40:21.173Z,2.05
2023-04-25T09:42:27.659Z,2.17
2023-04-25T09:44:29.162Z,1.77
2023-04-25T09:46:37.446Z,1.65
2023-04-25T09:48:39.227Z,1.65
2023-04-25T09:50:41.284Z,2.00
2023-04-25T09:52:42.854Z,1.77
2023-04-25T09:54:46.079Z,1.67
2023-04-25T09:56:51.944Z,1.77
2023-04-25T09:58:55.860Z,2.13
2023-04-25T10:01:01.786Z,1.80
2023-04-25T10:03:06.507Z,1.80
2023-04-25T10:05:09.396Z,2.25
2023-04-25T10:07:12.049Z,1.90
2023-04-25T10:09:14.591Z,2.22
2023-04-25T10:11:17.442Z,1.38
2023-04-25T10:13:19.658Z,1.90
2023-04-25T10:15:22.788Z,2.03
2023-04-25T10:17:24.543Z,1.65
2023-04-25T10:19:27.815Z,1.58
2023-04-25T10:21:31.496Z,2.47
2023-04-25T10:23:33.280Z,2.20
2023-04-25T10:25:35.548Z,1.73
2023-04-25T10:27:38.084Z,1.70
2023-04-25T10:29:39.559Z,1.50
2023-04-25T10:31:48.262Z,1.58
2023-04-25T10:33:50.388Z,1.50
2023-04-25T10:35:52.039Z,1.50
2023-04-25T10:38:26.199Z,1.48
2023-04-25T10:40:27.838Z,1.35
2023-04-25T10:42:29.842Z,1.55
2023-04-25T10:44:32.204Z,1.30
2023-04-25T10:46:35.057Z,1.17
2023-04-25T10:48:36.596Z,0.77
2023-04-25T10:50:40.202Z,0.73
2023-04-25T10:52:41.930Z,0.88
2023-04-25T10:54:54.808Z,0.85
2023-04-25T10:57:01.284Z,1.00
2023-04-25T10:59:11.019Z,1.00
2023-04-25T11:01:20.279Z,0.82
2023-04-25T11:03:23.146Z,1.20
2023-04-25T11:05:51.153Z,1.08
2023-04-25T11:08:07.572Z,1.05
2023-04-25T11:10:09.899Z,1.02
2023-04-25T11:14:34.169Z,1.10
2023-04-25T11:14:38.115Z,1.15
2023-04-25T11:16:37.357Z,0.93
2023-04-25T11:18:39.810Z,1.17
2023-04-25T11:20:44.182Z,1.00
2023-04-25T11:22:47.592Z,1.02
2023-04-25T11:24:49.350Z,1.10
2023-04-25T11:26:51.032Z,1.20
2023-04-25T11:28:52.465Z,1.10
2023-04-25T11:30:53.953Z,1.10
2023-04-25T11:32:55.803Z,1.00
2023-04-25T11:34:58.601Z,0.95
2023-04-25T11:37:01.523Z,0.98
2023-04-25T11:39:03.019Z,1.38
2023-04-25T11:41:04.582Z,1.27
2023-04-25T11:43:06.030Z,0.98
2023-04-25T11:45:08.016Z,1.00
2023-04-25T11:47:09.477Z,0.93
2023-04-25T11:49:11.137Z,1.05
2023-04-25T11:51:12.897Z,1.02
2023-04-25T11:53:14.569Z,1.27
2023-04-25T11:55:17.888Z,1.33
2023-04-25T11:57:22.097Z,1.10
2023-04-25T11:59:27.500Z,1.42
2023-04-25T12:01:31.674Z,0.95
2023-04-25T12:03:34.253Z,1.08
2023-04-25T12:05:37.050Z,0.90
2023-04-25T12:07:39.198Z,1.00
2023-04-25T12:09:41.464Z,0.80
2023-04-25T12:11:44.653Z,0.93
2023-04-25T12:13:46.073Z,1.35
2023-04-25T12:15:47.712Z,1.08
2023-04-25T12:17:52.410Z,0.85
2023-04-25T12:19:53.851Z,0.90
2023-04-25T12:21:58.619Z,1.00
2023-04-25T12:24:28.591Z,1.15
2023-04-25T12:27:06.958Z,0.52
2023-04-25T12:29:47.859Z,0.70
2023-04-25T12:31:51.235Z,0.90
2023-04-25T12:33:52.753Z,1.05
2023-04-25T12:35:55.111Z,1.00
2023-04-25T12:37:56.745Z,0.80
2023-04-25T12:39:58.179Z,0.70
2023-04-25T12:42:00.655Z,0.80
2023-04-25T12:44:02.073Z,0.70
2023-04-25T12:46:04.164Z,0.85
2023-04-25T12:48:05.744Z,1.02
2023-04-25T12:50:07.738Z,0.70
2023-04-25T12:52:09.176Z,0.80
2023-04-25T12:54:10.968Z,0.70
2023-04-25T12:56:12.446Z,0.70
2023-04-25T12:58:18.417Z,0.90
2023-04-25T13:00:20.946Z,1.05
2023-04-25T13:02:22.928Z,0.93
2023-04-25T13:04:24.887Z,0.82
2023-04-25T13:06:27.178Z,0.68
2023-04-25T13:08:28.621Z,1.45
2023-04-25T13:10:30.486Z,0.77
2023-04-25T13:12:32.023Z,0.73
2023-04-25T13:14:33.447Z,0.73
2023-04-25T13:16:34.874Z,0.70
2023-04-25T13:18:36.349Z,1.00
2023-04-25T13:20:37.835Z,0.65
2023-04-25T13:22:40.293Z,0.80
2023-04-25T13:24:41.857Z,0.80
2023-04-25T13:26:43.393Z,0.60
2023-04-25T13:28:45.129Z,0.73
2023-04-25T13:30:46.770Z,0.85
2023-04-25T13:32:48.395Z,0.70
2023-04-25T13:34:49.805Z,0.65
2023-04-25T13:36:51.196Z,0.80
2023-04-25T13:38:52.610Z,0.80
2023-04-25T13:40:54.363Z,0.52
2023-04-25T13:42:57.055Z,0.70
2023-04-25T13:44:58.526Z,1.10
2023-04-25T13:47:01.658Z,0.73
2023-04-25T13:49:12.298Z,0.60
2023-04-25T13:51:14.547Z,0.80
2023-04-25T13:53:16.004Z,0.73
2023-04-25T13:55:17.507Z,0.50
2023-04-25T13:57:19.362Z,0.70
2023-04-25T13:59:20.783Z,0.70
2023-04-25T14:01:22.494Z,0.55
2023-04-25T14:03:24.043Z,0.98
2023-04-25T14:05:25.723Z,0.70
2023-04-25T14:07:27.229Z,0.90
2023-04-25T14:09:29.147Z,0.75
2023-04-25T14:11:30.637Z,1.10
2023-04-25T14:13:34.874Z,1.00
2023-04-25T14:15:36.361Z,1.00
2023-04-25T14:17:38.435Z,0.93
2023-04-25T14:19:44.153Z,1.15
2023-04-25T14:21:45.661Z,1.10
2023-04-25T14:23:49.530Z,0.73
2023-04-25T14:25:51.284Z,0.73
2023-04-25T14:27:52.799Z,1.02
2023-04-25T14:29:54.320Z,0.82
2023-04-25T14:31:57.383Z,0.77
2023-04-25T14:33:59.788Z,0.90
2023-04-25T14:36:01.385Z,1.10
2023-04-25T14:38:02.864Z,0.77
2023-04-25T14:40:05.574Z,1.00
2023-04-25T14:42:06.992Z,0.88
2023-04-25T14:44:09.262Z,0.82
2023-04-25T14:46:11.860Z,1.00
2023-04-25T14:48:13.599Z,1.00
2023-04-25T14:50:15.274Z,0.90
2023-04-25T14:52:16.804Z,0.70
2023-04-25T14:54:18.297Z,1.20
2023-04-25T14:56:19.965Z,1.05
2023-04-25T14:58:21.516Z,0.93
2023-04-25T15:00:23.496Z,0.98
2023-04-25T15:02:25.499Z,0.93
2023-04-25T15:04:27.439Z,0.80
2023-04-25T15:06:30.412Z,0.90
2023-04-25T15:08:32.199Z,0.95
2023-04-25T15:10:34.080Z,1.00
2023-04-25T15:12:35.524Z,0.88
2023-04-25T15:14:37.085Z,1.17
2023-04-25T15:16:38.522Z,1.00
2023-04-25T15:18:39.916Z,0.82
2023-04-25T15:20:41.419Z,0.85
2023-04-25T15:22:44.694Z,0.90
2023-04-25T15:24:46.159Z,0.90
2023-04-25T15:26:47.605Z,1.02
2023-04-25T15:28:49.465Z,0.98
2023-04-25T15:30:51.392Z,0.85
2023-04-25T15:32:52.814Z,1.10
2023-04-25T15:34:54.190Z,1.00
2023-04-25T15:36:55.632Z,1.30
2023-04-25T15:38:57.591Z,1.00
2023-04-25T15:40:59.041Z,1.00
2023-04-25T15:43:00.563Z,0.82
2023-04-25T15:45:02.691Z,0.73
2023-04-25T15:47:04.141Z,1.00
2023-04-25T15:49:05.571Z,0.90
2023-04-25T15:51:07.327Z,1.10
2023-04-25T15:53:08.782Z,1.05
2023-04-25T15:55:11.561Z,0.88
2023-04-25T15:57:13.217Z,0.80
2023-04-25T15:59:14.646Z,0.80
2023-04-25T16:01:16.518Z,0.88
2023-04-25T16:03:18.268Z,1.00
2023-04-25T16:05:20.397Z,0.80
2023-04-25T16:07:22.028Z,0.60
2023-04-25T16:09:23.433Z,1.02
2023-04-25T16:11:24.960Z,0.80
2023-04-25T16:13:27.458Z,0.75
2023-04-25T16:15:28.827Z,0.65
2023-04-25T16:17:30.398Z,0.88
2023-04-25T16:19:32.505Z,0.88
2023-04-25T16:21:33.850Z,0.80
2023-04-25T16:23:35.284Z,0.70
2023-04-25T16:25:36.638Z,0.93
2023-04-25T16:27:39.319Z,1.13
2023-04-25T16:29:41.346Z,1.10
2023-04-25T16:31:43.458Z,0.98
2023-04-25T16:33:44.950Z,0.85
2023-04-25T16:35:46.392Z,0.90
2023-04-25T16:37:48.309Z,0.90
2023-04-25T16:39:49.772Z,0.60
2023-04-25T16:41:51.945Z,0.70
2023-04-25T16:43:53.995Z,0.75
2023-04-25T16:45:55.908Z,0.80
2023-04-25T16:47:57.386Z,0.75
2023-04-25T16:50:00.932Z,1.00
2023-04-25T16:52:02.508Z,0.70
2023-04-25T16:54:04.064Z,0.68
2023-04-25T16:56:07.532Z,0.80
2023-04-25T16:58:11.881Z,0.70
2023-04-25T17:00:14.122Z,0.90
2023-04-25T17:02:15.868Z,0.60
2023-04-25T17:04:17.536Z,0.73
2023-04-25T17:06:19.218Z,1.13
2023-04-25T17:08:20.827Z,0.80
2023-04-25T17:10:22.915Z,0.80
2023-04-25T17:12:24.343Z,1.30
2023-04-25T17:14:26.881Z,0.90
2023-04-25T17:16:38.538Z,0.80
2023-04-25T17:18:40.012Z,1.00
2023-04-25T17:20:41.597Z,1.02
2023-04-25T17:22:43.537Z,0.90
2023-04-25T17:24:44.973Z,1.20
2023-04-25T17:26:48.248Z,1.58
2023-04-25T17:28:50.593Z,0.80
2023-04-25T17:30:52.222Z,0.90
2023-04-25T17:32:53.973Z,1.00
2023-04-25T17:34:56.742Z,0.93
2023-04-25T17:36:58.150Z,1.20
2023-04-25T17:38:59.564Z,0.90
2023-04-25T17:41:01.649Z,0.80
2023-04-25T17:43:03.134Z,0.95
2023-04-25T17:45:05.292Z,1.10
2023-04-25T17:47:08.626Z,1.02
2023-04-25T17:49:10.261Z,0.98
2023-04-25T17:51:11.729Z,1.02
2023-04-25T17:53:13.129Z,1.10
2023-04-25T17:55:14.567Z,1.30
2023-04-25T17:57:16.338Z,1.25
2023-04-25T17:59:19.231Z,0.90
2023-04-25T18:01:20.717Z,0.85
2023-04-25T18:03:22.482Z,1.10
2023-04-25T18:05:24.961Z,1.35
2023-04-25T18:07:26.390Z,1.00
2023-04-25T18:09:27.836Z,0.77
2023-04-25T18:11:29.975Z,0.90
2023-04-25T18:13:31.394Z,0.82
2023-04-25T18:15:32.801Z,1.00
2023-04-25T18:17:39.636Z,1.10
2023-04-25T18:21:45.858Z,1.00
2023-04-25T18:23:47.520Z,1.20
2023-04-25T18:25:51.868Z,0.88
2023-04-25T18:27:53.437Z,0.93
2023-04-25T18:29:54.824Z,0.90
2023-04-25T18:31:56.344Z,0.75
2023-04-25T18:33:58.461Z,0.80
2023-04-25T18:36:00.018Z,0.98
2023-04-25T18:38:01.535Z,1.00
2023-04-25T18:40:06.595Z,3.15
2023-04-25T18:42:08.453Z,1.65
2023-04-25T18:44:09.819Z,2.30
2023-04-25T18:46:11.669Z,1.75
2023-04-25T18:48:13.177Z,1.10
2023-04-25T18:50:15.479Z,1.10
2023-04-25T18:52:17.687Z,1.02
2023-04-25T18:54:19.055Z,1.23
2023-04-25T18:56:22.599Z,1.27
2023-04-25T18:58:24.057Z,1.13
2023-04-25T19:00:25.500Z,1.33
2023-04-25T19:02:27.011Z,1.60
2023-04-25T19:04:29.729Z,1.75
2023-04-25T19:06:31.272Z,1.20
2023-04-25T19:08:32.690Z,0.90
2023-04-25T19:10:34.328Z,0.90
2023-04-25T19:12:35.720Z,1.15
2023-04-25T19:14:37.126Z,1.17
2023-04-25T19:19:05.813Z,1.63
2023-04-25T19:21:08.493Z,2.10
2023-04-25T19:23:11.017Z,2.55
2023-04-25T19:25:12.512Z,1.20
2023-04-25T19:29:44.205Z,1.30
2023-04-25T19:31:45.699Z,0.95
2023-04-25T19:33:47.242Z,1.58
2023-04-25T19:35:48.631Z,1.10
2023-04-25T19:37:50.463Z,1.63
2023-04-25T19:39:51.851Z,1.23
2023-04-25T19:41:54.354Z,1.17
2023-04-25T19:43:55.801Z,2.00
2023-04-25T19:45:57.604Z,2.30
2023-04-25T19:47:59.215Z,2.30
2023-04-25T19:50:01.189Z,3.58
2023-04-25T19:52:03.673Z,3.22
2023-04-25T19:54:05.445Z,1.83
2023-04-25T19:56:09.409Z,1.60
2023-04-25T19:58:10.787Z,1.52
2023-04-25T20:00:14.555Z,1.30
2023-04-25T20:02:18.256Z,2.28
2023-04-25T20:04:19.754Z,1.23
2023-04-25T20:06:21.566Z,1.08
2023-04-25T20:08:24.733Z,1.00
2023-04-25T20:10:27.321Z,1.10
2023-04-25T20:12:29.984Z,1.50
2023-04-25T20:14:33.021Z,1.23
2023-04-25T20:16:34.745Z,1.50
2023-04-25T20:18:36.276Z,1.13
2023-04-25T20:20:37.767Z,1.20
2023-04-25T20:22:40.585Z,1.35
2023-04-25T20:24:42.293Z,1.30
2023-04-25T20:26:45.079Z,1.23
2023-04-25T20:28:46.797Z,1.05
2023-04-25T20:30:48.429Z,1.17
2023-04-25T20:32:50.043Z,1.20
2023-04-25T20:34:51.607Z,1.10
2023-04-25T20:36:53.072Z,1.13
2023-04-25T20:38:54.823Z,1.02
2023-04-25T20:40:56.510Z,1.40
2023-04-25T20:42:58.174Z,1.38
2023-04-25T20:44:59.633Z,1.40
2023-04-25T20:47:01.018Z,1.40
2023-04-25T20:49:05.032Z,1.40
2023-04-25T20:51:07.170Z,1.30
2023-04-25T20:53:08.881Z,1.50
2023-04-25T20:55:11.704Z,1.60
2023-04-25T20:57:13.119Z,1.20
2023-04-25T20:59:15.310Z,1.42
2023-04-25T21:01:16.804Z,1.20
2023-04-25T21:03:18.513Z,1.40
2023-04-25T21:05:22.197Z,1.15
2023-04-25T21:07:23.644Z,1.30
2023-04-25T21:09:25.343Z,1.15
2023-04-25T21:11:27.444Z,1.50
2023-04-25T21:13:29.069Z,1.40
2023-04-25T21:15:30.767Z,1.33
2023-04-25T21:17:32.170Z,1.35
2023-04-25T21:19:33.956Z,1.35
2023-04-25T21:21:35.624Z,1.35
2023-04-25T21:23:37.064Z,1.33
2023-04-25T21:25:38.621Z,1.80
2023-04-25T21:27:39.999Z,1.20
2023-04-25T21:29:41.418Z,1.42
2023-04-25T21:31:43.586Z,1.33
2023-04-25T21:33:45.064Z,1.42
2023-04-25T21:35:46.459Z,1.58
2023-04-25T21:37:48.363Z,1.45
2023-04-25T21:39:49.985Z,1.45
2023-04-25T21:41:51.368Z,1.60
2023-04-25T21:43:59.186Z,1.65
2023-04-25T21:48:04.889Z,1.50
2023-04-25T21:50:07.355Z,1.35
2023-04-25T21:52:09.675Z,1.23
2023-04-25T21:54:11.054Z,1.13
2023-04-25T21:56:12.562Z,1.80
2023-04-25T21:58:14.066Z,1.50
2023-04-25T22:00:25.032Z,1.50
2023-04-25T22:02:27.799Z,1.27
2023-04-25T22:04:29.767Z,1.33
2023-04-25T22:06:32.154Z,1.08
2023-04-25T22:08:33.594Z,1.63
2023-04-25T22:10:35.394Z,1.60
2023-04-25T22:12:37.375Z,1.65
2023-04-25T22:14:38.908Z,1.30
2023-04-25T22:16:40.374Z,1.30
2023-04-25T22:18:42.234Z,1.52
2023-04-25T22:20:44.278Z,1.55
2023-04-25T22:22:46.326Z,2.00
2023-04-25T22:24:49.654Z,1.75
2023-04-25T22:26:51.173Z,1.15
2023-04-25T22:28:52.779Z,1.63
2023-04-25T22:30:54.870Z,1.42
2023-04-25T22:32:56.365Z,1.40
2023-04-25T22:34:57.796Z,1.45
2023-04-25T22:36:59.538Z,1.23
2023-04-25T22:39:00.956Z,1.15
2023-04-25T22:41:02.386Z,1.30
2023-04-25T22:43:03.775Z,1.50
2023-04-25T22:45:08.082Z,1.60
2023-04-25T22:47:09.530Z,1.35
2023-04-25T22:49:10.943Z,1.20
2023-04-25T22:51:12.613Z,1.85
2023-04-25T22:53:14.137Z,1.80
2023-04-25T22:55:15.599Z,1.27
2023-04-25T22:57:17.054Z,1.08
2023-04-25T22:59:20.691Z,1.70
2023-04-25T23:01:22.133Z,1.50
2023-04-25T23:03:23.686Z,1.23
2023-04-25T23:05:25.155Z,1.90
2023-04-25T23:07:26.515Z,1.35
2023-04-25T23:09:27.871Z,1.67
2023-04-25T23:11:29.340Z,1.40
2023-04-25T23:13:31.565Z,1.60
2023-04-25T23:15:33.264Z,1.70
2023-04-25T23:17:35.205Z,1.40
2023-04-25T23:19:36.663Z,1.58
2023-04-25T23:21:38.146Z,1.63
2023-04-25T23:23:39.900Z,1.50
2023-04-25T23:25:41.337Z,1.77
2023-04-25T23:27:43.622Z,1.50
2023-04-25T23:29:53.099Z,1.40
2023-04-25T23:31:54.520Z,2.45
2023-04-25T23:33:56.016Z,1.30
2023-04-25T23:35:57.446Z,1.70
2023-04-25T23:37:58.858Z,1.20
2023-04-25T23:40:00.340Z,1.33
2023-04-25T23:42:01.732Z,1.33
2023-04-25T23:44:03.534Z,1.80
2023-04-25T23:46:05.121Z,1.70
2023-04-25T23:48:06.719Z,1.52
2023-04-25T23:50:08.635Z,1.60
2023-04-25T23:52:10.064Z,1.50
2023-04-25T23:54:12.036Z,1.40
2023-04-25T23:56:13.433Z,1.80
2023-04-25T23:58:14.828Z,1.75
